This is the latest recevied weather packets stored in our database for station/object KI7MOQ. If no packets are shown the sender has not sent any weather packets the latest 10 day(s).
| Time | Temp. | Humidity | Pressure | Rain* | Wind** | Luminosity | Snow |
|---|---|---|---|---|---|---|---|
| 1777482204 | 11.11° C | 73% | 1026.6 hPa | 0 mm | - | 28 W/m² | - |
| 1777481901 | 11.11° C | 73% | 1026.7 hPa | 0 mm | - | 49 W/m² | - |
| 1777481599 | 11.11° C | 73% | 1026.8 hPa | 0 mm | - | 30 W/m² | - |
| 1777481296 | 11.11° C | 73% | 1026.9 hPa | 0 mm | - | 72 W/m² | - |
| 1777480992 | 11.11° C | 74% | 1026.8 hPa | 0 mm | - | 38 W/m² | - |
| 1777480689 | 11.11° C | 73% | 1026.7 hPa | 0 mm | - | 79 W/m² | - |
| 1777480386 | 11.11° C | 72% | 1026.9 hPa | 0 mm | - | 85 W/m² | - |
| 1777480081 | 10.56° C | 74% | 1026.9 hPa | 0 mm | - | 326 W/m² | - |
| 1777479778 | 10° C | 78% | 1027 hPa | 0 mm | - | 284 W/m² | - |
| 1777479476 | 10° C | 79% | 1027 hPa | 0 mm | - | 269 W/m² | - |
| 1777479172 | 10° C | 78% | 1027.1 hPa | 0 mm | - | 60 W/m² | - |
| 1777478869 | 11.11° C | 73% | 1027.1 hPa | 0 mm | - | 83 W/m² | - |
| 1777478565 | 12.22° C | 69% | 1027.2 hPa | 0 mm | - | 143 W/m² | - |
| 1777478263 | 11.11° C | 74% | 1027.1 hPa | 0 mm | - | 210 W/m² | - |
| 1777477959 | 11.11° C | 73% | 1027.3 hPa | 0 mm | - | 196 W/m² | - |
| 1777477654 | 11.11° C | 74% | 1027.3 hPa | 0 mm | - | 184 W/m² | - |
| 1777477351 | 11.11° C | 74% | 1027.4 hPa | 0 mm | - | 173 W/m² | - |
| 1777477047 | 9.44° C | 80% | 1027.4 hPa | 0 mm | - | 159 W/m² | - |
| 1777476745 | 9.44° C | 80% | 1027.4 hPa | 0 mm | - | 145 W/m² | - |
| 1777476442 | 8.89° C | 82% | 1027.3 hPa | 0 mm | - | 127 W/m² | - |
| 1777476139 | 8.33° C | 84% | 1027.5 hPa | 0 mm | - | 97 W/m² | - |
| 1777475834 | 7.78° C | 86% | 1027.4 hPa | 0 mm | - | 55 W/m² | - |
| 1777475530 | 7.78° C | 86% | 1027.6 hPa | 0 mm | - | 53 W/m² | - |
| 1777475227 | 7.78° C | 84% | 1027.5 hPa | 0 mm | - | 28 W/m² | - |
| 1777474922 | 6.11° C | 91% | 1027.5 hPa | 0 mm | - | 77 W/m² | - |
* Rain latest hour (hover to see other rain measurements)
** Current wind speed in m/s (hover to see current wind gust speed)